• Join FlightAware (Why Join?)
  • Login
  • US Flag 
06:26PM EDT


 

Airport Tracker/Info


-or-


 

Live Flight TrackerFlight Track Log ✈ ACA289 ✈ 30-Jun-2013 ✈ CYVR - CYXY

Flight Track Log - Related Links

Times and Time Zones

All times are in EDT time to prevent confusion due to time zone crossing. See the ACA289 flight status page for this flight to view local times or setup timezone preferences in your user account.

Time Position Orientation Groundspeed Altitude Reporting Facility
EDT Latitude Longitude Course Direction KTS MPH feet Rate Location/Type
02:08PM 49.1667 -123.2333 339° North 160 184 1,600  Level Vancouver Center
02:09PM 49.1833 -123.3333 284° West 220 253 3,300 1,980 Climbing Vancouver Center
02:10PM 49.3905 -123.3905 327° Northwest  Level FlightAware Approximate
02:10PM 49.2333 -123.3833 327° Northwest 250 288 5,600  Level Vancouver Center
02:11PM 49.5004 -123.4837 327° Northwest  Level FlightAware Approximate
02:11PM 49.3167 -123.3667 North 290 334 8,200  Level Vancouver Center
02:12PM 49.6133 -123.5666 338° Northwest  Level FlightAware Approximate
02:12PM 49.3833 -123.3333 18° North 300 345 9,000  Level Vancouver Center
02:13PM 49.7201 -123.6487 339° North  Level FlightAware Approximate
02:13PM 49.4667 -123.2833 21° North 320 368 10,900  Level Vancouver Center
02:14PM 49.5667 -123.2333 18° North 360 414 13,200 2,160 Climbing Vancouver Center
02:15PM 49.6667 -123.1833 18° North 380 437 15,300 2,100 Climbing Vancouver Center
02:16PM 49.7833 -123.2000 355° North 390 449 17,400 1,920 Climbing Vancouver Center
02:17PM 49.8833 -123.2500 342° North 410 472 19,200 1,920 Climbing Vancouver Center
02:18PM 50.0000 -123.3333 335° Northwest 420 483 21,300 1,800 Climbing Vancouver Center
02:19PM 50.1000 -123.4167 332° Northwest 420 483 22,900 1,500 Climbing Vancouver Center
02:20PM 50.2000 -123.4833 337° Northwest 440 506 24,400 1,500 Climbing Vancouver Center
02:21PM 50.3167 -123.5833 331° Northwest 450 518 26,000 1,380 Climbing Vancouver Center
02:23PM 50.5500 -123.7500 336° Northwest 460 529 28,600 1,260 Climbing Vancouver Center
02:24PM 50.6667 -123.8500 331° Northwest 460 529 29,900 1,380 Climbing Vancouver Center
02:25PM 50.7833 -123.9333 336° Northwest 460 529 31,400 1,260 Climbing Vancouver Center
02:26PM 50.8833 -124.0167 332° Northwest 450 518 32,500 1,080 Climbing Vancouver Center
02:27PM 51.0000 -124.1167 332° Northwest 450 518 33,600 1,020 Climbing Vancouver Center
02:28PM 51.1167 -124.2000 336° Northwest 450 518 34,600 900 Climbing Vancouver Center
02:29PM 51.2167 -124.2833 332° Northwest 440 506 35,500 660 Climbing Vancouver Center
02:30PM 51.3333 -124.3833 332° Northwest 440 506 36,000 240 Climbing Vancouver Center
02:31PM 51.4500 -124.4667 336° Northwest 450 518 36,000  Level Vancouver Center
02:32PM 51.5667 -124.5500 336° Northwest 450 518 36,000  Level Vancouver Center
02:33PM 51.6667 -124.6333 333° Northwest 440 506 36,000  Level Vancouver Center
02:34PM 51.7833 -124.7500 328° Northwest 450 518 36,000  Level Vancouver Center
02:35PM 51.9000 -124.8333 336° Northwest 450 518 36,000  Level Vancouver Center
02:36PM 52.0000 -124.9167 333° Northwest 440 506 36,000  Level Vancouver Center
02:37PM 52.1167 -125.0167 332° Northwest 440 506 36,000  Level Vancouver Center
02:38PM 52.2167 -125.1000 333° Northwest 440 506 36,000  Level Vancouver Center
02:39PM 52.3333 -125.1833 336° Northwest 440 506 36,000  Level Vancouver Center
02:41PM 52.5500 -125.3833 331° Northwest 450 518 36,000  Level Vancouver Center
02:42PM 52.6667 -125.4833 333° Northwest 450 518 36,000  Level Vancouver Center
02:43PM 52.7833 -125.5667 337° Northwest 450 518 36,000  Level Vancouver Center
02:44PM 52.8833 -125.6833 325° Northwest 450 518 36,000  Level Vancouver Center
02:45PM 53.0000 -125.7667 337° Northwest 450 518 36,000  Level Vancouver Center
02:46PM 53.1000 -125.8500 333° Northwest 450 518 36,000  Level Vancouver Center
02:47PM 53.2167 -125.9667 329° Northwest 440 506 36,000  Level Vancouver Center
02:49PM 53.3685 -126.1123 330° Northwest  Level Estimated
02:49PM 53.4333 -126.1500 330° Northwest 450 518 36,000  Level Vancouver Center
02:50PM 53.5333 -126.2333 334° Northwest 450 518 36,000  Level Vancouver Center
02:51PM 53.6500 -126.3667 326° Northwest 450 518 36,000  Level Vancouver Center
02:52PM 53.7667 -126.4500 337° Northwest 460 529 36,000  Level Vancouver Center
02:53PM 53.8667 -126.5500 329° Northwest 460 529 36,000  Level Vancouver Center
02:54PM 54.0000 -126.6667 333° Northwest 450 518 36,000  Level Vancouver Center
02:55PM 54.1000 -126.7500 334° Northwest 450 518 36,000  Level Vancouver Center
02:57PM 54.3167 -126.9667 330° Northwest 450 518 36,000  Level Vancouver Center
02:59PM 54.5333 -127.1833 330° Northwest 450 518 36,000  Level Vancouver Center
03:00PM 54.6500 -127.2833 334° Northwest 450 518 36,000  Level Vancouver Center
03:02PM 54.7991 -127.4470 328° Northwest  Level FlightAware Approximate
03:03PM 54.9833 -127.6000 328° Northwest 460 529 36,000  Level Vancouver Center
03:04PM 55.0833 -127.7333 323° Northwest 460 529 36,000  Level Vancouver Center
03:06PM 55.2290 -127.9080 326° Northwest  Level FlightAware Approximate
03:06PM 55.3167 -127.9333 326° Northwest 440 506 36,000  Level Vancouver Center
03:07PM 55.4333 -128.0500 330° Northwest 470 541 36,000  Level Vancouver Center
03:08PM 55.5333 -128.1500 331° Northwest 460 529 36,000  Level Vancouver Center
03:09PM 55.4698 -128.2012 328° Northwest  Level FlightAware Approximate
03:09PM 55.6500 -128.2833 327° Northwest 460 529 36,000  Level Vancouver Center
03:10PM 55.7667 -128.3833 334° Northwest 460 529 36,000  Level Vancouver Center
03:11PM 55.8667 -128.4833 331° Northwest 460 529 36,000  Level Vancouver Center
03:12PM 55.9667 -128.6167 323° Northwest 450 518 36,000  Level Vancouver Center
03:13PM 56.0833 -128.7333 331° Northwest 460 529 36,000  Level Vancouver Center
03:14PM 56.2000 -128.8667 328° Northwest 450 518 36,000  Level Vancouver Center
03:15PM 56.3167 -128.9667 335° Northwest 450 518 36,000  Level Vancouver Center
03:16PM 56.4167 -129.1000 324° Northwest 450 518 36,000  Level Vancouver Center
03:17PM 56.5167 -129.2000 331° Northwest 450 518 36,000  Level Vancouver Center
03:18PM 56.6333 -129.3167 331° Northwest 460 529 36,000  Level Vancouver Center
03:19PM 56.7333 -129.4167 331° Northwest 460 529 36,000  Level Vancouver Center
03:20PM 56.8333 -129.5500 324° Northwest 450 518 36,000  Level Vancouver Center
03:21PM 56.9500 -129.7000 325° Northwest 460 529 36,000  Level Vancouver Center
03:22PM 57.0500 -129.8333 324° Northwest 470 541 36,000  Level Vancouver Center
03:23PM 57.1500 -129.9667 324° Northwest 450 518 36,000  Level Vancouver Center
03:25PM 57.3015 -130.1386 329° Northwest  Level FlightAware Approximate
03:32PM 57.9825 -130.9331 328° Northwest  Level FlightAware Approximate
03:33PM 58.0794 -131.0491 328° Northwest  Level FlightAware Approximate
03:34PM 58.1761 -131.1656 328° Northwest  Level FlightAware Approximate
03:35PM 58.2728 -131.2829 327° Northwest  Level FlightAware Approximate
03:36PM 58.3694 -131.4007 327° Northwest  Level FlightAware Approximate
03:37PM 58.4658 -131.5193 327° Northwest  Level FlightAware Approximate
03:38PM 58.5622 -131.6384 327° Northwest  Level FlightAware Approximate
03:39PM 58.6584 -131.7583 327° Northwest  Level FlightAware Approximate
03:40PM 58.7545 -131.8787 327° Northwest  Level FlightAware Approximate
03:41PM 58.8505 -131.9999 327° Northwest  Level FlightAware Approximate
03:42PM 58.9464 -132.1217 327° Northwest  Level FlightAware Approximate
03:43PM 59.0422 -132.2442 327° Northwest  Level FlightAware Approximate
03:44PM 59.1378 -132.3674 327° Northwest  Level FlightAware Approximate
03:45PM 59.2334 -132.4913 326° Northwest  Level FlightAware Approximate
03:46PM 59.3284 -132.6176 323° Northwest  Level FlightAware Approximate
03:47PM 59.4211 -132.7500 326° Northwest  Level FlightAware Approximate
03:48PM 59.5162 -132.8763 326° Northwest  Level FlightAware Approximate
03:49PM 59.6111 -133.0034 326° Northwest  Level FlightAware Approximate
03:50PM 59.7046 -133.1349 324° Northwest  Level FlightAware Approximate
03:51PM 59.7949 -133.2749 320° Northwest  Level FlightAware Approximate
03:52PM 59.8889 -133.4058 325° Northwest  Level FlightAware Approximate
03:53PM 59.9830 -133.5365 325° Northwest  Level FlightAware Approximate
03:54PM 60.0769 -133.6683 325° Northwest  Level FlightAware Approximate
03:55PM 60.1706 -133.8011 325° Northwest  Level FlightAware Approximate
03:56PM 60.2639 -133.9355 324° Northwest  Level FlightAware Approximate
03:57PM 60.3567 -134.0717 324° Northwest  Level FlightAware Approximate
03:58PM 60.4493 -134.2085 324° Northwest  Level FlightAware Approximate
03:59PM 60.5418 -134.3462 324° Northwest  Level FlightAware Approximate
04:00PM 60.6343 -134.4845 324° Northwest  Level FlightAware Approximate
04:01PM 60.7261 -134.6248 322° Northwest  Level FlightAware Approximate
04:02PM 60.8165 -134.7693 322° Northwest  Level FlightAware Approximate
04:03PM 60.9078 -134.9117 324° Northwest  Level FlightAware Approximate
04:04PM 60.8513 -134.9774 189° South  Level FlightAware Approximate
04:05PM 60.7420 -135.0457 194° South  Level FlightAware Approximate
04:06PM 60.7095 -135.0673 194° South  Level Estimated
04:07PM 60.7095 -135.0673 194° South  Level Estimated
04:08PM 60.7095 -135.0673 194° South  Level Estimated
04:09PM 60.7095 -135.0673 194° South  Level Estimated
04:10PM 60.7095 -135.0673 194° South  Level Estimated
04:11PM 60.7095 -135.0673 194° South  Level Estimated
04:12PM 60.7095 -135.0673 194° South  Level Estimated